sensor_id;sensor_type;location;lat;lon;timestamp;P1;P2;P0
68713;PMS7003;55690;51.566;19.198;2023-05-02T00:00:03;8;4;3
68713;PMS7003;55690;51.566;19.198;2023-05-02T00:04:10;2;0;0
68713;PMS7003;55690;51.566;19.198;2023-05-02T00:08:15;4;4;3
68713;PMS7003;55690;51.566;19.198;2023-05-02T00:12:21;3;2;2
68713;PMS7003;55690;51.566;19.198;2023-05-02T00:16:28;5;5;4
68713;PMS7003;55690;51.566;19.198;2023-05-02T00:20:34;7;6;4
68713;PMS7003;55690;51.566;19.198;2023-05-02T00:24:40;3;3;3
68713;PMS7003;55690;51.566;19.198;2023-05-02T00:28:46;3;3;3
68713;PMS7003;55690;51.566;19.198;2023-05-02T00:32:52;2;2;2
68713;PMS7003;55690;51.566;19.198;2023-05-02T00:36:58;5;1;1
68713;PMS7003;55690;51.566;19.198;2023-05-02T00:41:05;4;2;1
68713;PMS7003;55690;51.566;19.198;2023-05-02T00:45:11;4;4;2
68713;PMS7003;55690;51.566;19.198;2023-05-02T00:49:17;4;4;3
68713;PMS7003;55690;51.566;19.198;2023-05-02T00:53:23;7;2;2
68713;PMS7003;55690;51.566;19.198;2023-05-02T00:57:29;5;3;3
68713;PMS7003;55690;51.566;19.198;2023-05-02T01:01:40;5;2;1
68713;PMS7003;55690;51.566;19.198;2023-05-02T01:06:15;7;4;3
68713;PMS7003;55690;51.566;19.198;2023-05-02T01:14:24;8;3;3
68713;PMS7003;55690;51.566;19.198;2023-05-02T01:18:32;2;2;2
68713;PMS7003;55690;51.566;19.198;2023-05-02T01:22:37;5;3;2
68713;PMS7003;55690;51.566;19.198;2023-05-02T01:30:55;3;3;2
68713;PMS7003;55690;51.566;19.198;2023-05-02T01:34:56;3;3;2
68713;PMS7003;55690;51.566;19.198;2023-05-02T01:39:00;3;3;3
68713;PMS7003;55690;51.566;19.198;2023-05-02T01:43:03;2;2;2
68713;PMS7003;55690;51.566;19.198;2023-05-02T01:47:07;5;2;2
68713;PMS7003;55690;51.566;19.198;2023-05-02T01:51:10;5;2;2
68713;PMS7003;55690;51.566;19.198;2023-05-02T01:55:14;3;3;2
68713;PMS7003;55690;51.566;19.198;2023-05-02T01:59:18;6;3;3
68713;PMS7003;55690;51.566;19.198;2023-05-02T02:03:22;3;3;3
68713;PMS7003;55690;51.566;19.198;2023-05-02T02:07:24;9;4;2
68713;PMS7003;55690;51.566;19.198;2023-05-02T02:11:29;7;3;3
68713;PMS7003;55690;51.566;19.198;2023-05-02T02:15:37;4;4;3
68713;PMS7003;55690;51.566;19.198;2023-05-02T02:19:41;3;3;3
68713;PMS7003;55690;51.566;19.198;2023-05-02T02:23:46;13;6;5
68713;PMS7003;55690;51.566;19.198;2023-05-02T02:27:50;6;4;3
68713;PMS7003;55690;51.566;19.198;2023-05-02T02:31:53;3;3;2
68713;PMS7003;55690;51.566;19.198;2023-05-02T02:36:01;11;5;3
68713;PMS7003;55690;51.566;19.198;2023-05-02T02:44:33;5;3;2
68713;PMS7003;55690;51.566;19.198;2023-05-02T02:52:59;9;5;4
68713;PMS7003;55690;51.566;19.198;2023-05-02T02:57:05;7;7;5
68713;PMS7003;55690;51.566;19.198;2023-05-02T03:05:21;2;2;1
68713;PMS7003;55690;51.566;19.198;2023-05-02T03:09:24;9;7;6
68713;PMS7003;55690;51.566;19.198;2023-05-02T03:13:33;3;3;2
68713;PMS7003;55690;51.566;19.198;2023-05-02T03:17:35;1;1;1
68713;PMS7003;55690;51.566;19.198;2023-05-02T03:21:37;5;5;4
68713;PMS7003;55690;51.566;19.198;2023-05-02T03:25:38;11;5;4
68713;PMS7003;55690;51.566;19.198;2023-05-02T03:29:39;7;6;5
68713;PMS7003;55690;51.566;19.198;2023-05-02T03:33:41;5;5;4
68713;PMS7003;55690;51.566;19.198;2023-05-02T03:37:43;6;5;5
68713;PMS7003;55690;51.566;19.198;2023-05-02T03:41:45;5;5;4
68713;PMS7003;55690;51.566;19.198;2023-05-02T03:45:46;3;3;2
68713;PMS7003;55690;51.566;19.198;2023-05-02T03:49:49;7;7;3
68713;PMS7003;55690;51.566;19.198;2023-05-02T03:53:55;3;3;3
68713;PMS7003;55690;51.566;19.198;2023-05-02T03:58:01;14;7;5
68713;PMS7003;55690;51.566;19.198;2023-05-02T04:02:07;7;4;4
68713;PMS7003;55690;51.566;19.198;2023-05-02T04:06:13;11;5;3
68713;PMS7003;55690;51.566;19.198;2023-05-02T04:10:20;6;5;4
68713;PMS7003;55690;51.566;19.198;2023-05-02T04:14:26;5;5;5
68713;PMS7003;55690;51.566;19.198;2023-05-02T04:18:32;6;6;3
68713;PMS7003;55690;51.566;19.198;2023-05-02T04:22:38;7;5;4
68713;PMS7003;55690;51.566;19.198;2023-05-02T04:26:44;7;6;5
68713;PMS7003;55690;51.566;19.198;2023-05-02T04:30:51;8;4;4
68713;PMS7003;55690;51.566;19.198;2023-05-02T04:34:57;7;7;6
68713;PMS7003;55690;51.566;19.198;2023-05-02T04:39:03;8;5;5
68713;PMS7003;55690;51.566;19.198;2023-05-02T04:43:09;7;7;6
68713;PMS7003;55690;51.566;19.198;2023-05-02T04:47:15;6;5;4
68713;PMS7003;55690;51.566;19.198;2023-05-02T04:51:21;7;5;4
68713;PMS7003;55690;51.566;19.198;2023-05-02T04:55:28;4;4;3
68713;PMS7003;55690;51.566;19.198;2023-05-02T04:59:34;6;5;4
68713;PMS7003;55690;51.566;19.198;2023-05-02T05:03:40;9;8;7
68713;PMS7003;55690;51.566;19.198;2023-05-02T05:07:46;4;2;2
68713;PMS7003;55690;51.566;19.198;2023-05-02T05:11:52;6;5;4
68713;PMS7003;55690;51.566;19.198;2023-05-02T05:15:59;7;4;4
68713;PMS7003;55690;51.566;19.198;2023-05-02T05:20:05;6;5;3
68713;PMS7003;55690;51.566;19.198;2023-05-02T05:24:11;13;10;7
68713;PMS7003;55690;51.566;19.198;2023-05-02T05:28:17;7;4;4
68713;PMS7003;55690;51.566;19.198;2023-05-02T05:32:23;9;7;4
68713;PMS7003;55690;51.566;19.198;2023-05-02T05:36:29;7;7;5
68713;PMS7003;55690;51.566;19.198;2023-05-02T05:40:35;8;5;4
68713;PMS7003;55690;51.566;19.198;2023-05-02T05:44:42;9;8;5
68713;PMS7003;55690;51.566;19.198;2023-05-02T05:48:48;7;6;5
68713;PMS7003;55690;51.566;19.198;2023-05-02T05:52:54;13;6;4
68713;PMS7003;55690;51.566;19.198;2023-05-02T05:57:00;8;8;6
68713;PMS7003;55690;51.566;19.198;2023-05-02T06:01:06;11;9;7
68713;PMS7003;55690;51.566;19.198;2023-05-02T06:05:13;7;3;3
68713;PMS7003;55690;51.566;19.198;2023-05-02T06:09:19;8;6;4
68713;PMS7003;55690;51.566;19.198;2023-05-02T06:13:25;4;4;3
68713;PMS7003;55690;51.566;19.198;2023-05-02T06:17:31;6;5;3
68713;PMS7003;55690;51.566;19.198;2023-05-02T06:21:37;7;7;6
68713;PMS7003;55690;51.566;19.198;2023-05-02T06:25:43;5;5;4
68713;PMS7003;55690;51.566;19.198;2023-05-02T06:29:50;8;6;5
68713;PMS7003;55690;51.566;19.198;2023-05-02T06:33:56;6;6;5
68713;PMS7003;55690;51.566;19.198;2023-05-02T06:38:02;5;5;4
68713;PMS7003;55690;51.566;19.198;2023-05-02T06:42:08;3;3;2
68713;PMS7003;55690;51.566;19.198;2023-05-02T06:46:14;6;6;4
68713;PMS7003;55690;51.566;19.198;2023-05-02T06:50:20;4;4;4
68713;PMS7003;55690;51.566;19.198;2023-05-02T06:54:26;14;5;5
68713;PMS7003;55690;51.566;19.198;2023-05-02T06:58:33;5;5;4
68713;PMS7003;55690;51.566;19.198;2023-05-02T07:02:39;10;9;7
68713;PMS7003;55690;51.566;19.198;2023-05-02T07:06:45;7;7;5
68713;PMS7003;55690;51.566;19.198;2023-05-02T07:10:52;5;5;5
68713;PMS7003;55690;51.566;19.198;2023-05-02T07:14:57;8;8;7
68713;PMS7003;55690;51.566;19.198;2023-05-02T07:19:03;5;5;5
68713;PMS7003;55690;51.566;19.198;2023-05-02T07:23:10;9;9;5
68713;PMS7003;55690;51.566;19.198;2023-05-02T07:27:16;7;7;6
68713;PMS7003;55690;51.566;19.198;2023-05-02T07:31:22;8;8;7
68713;PMS7003;55690;51.566;19.198;2023-05-02T07:35:28;7;7;6
68713;PMS7003;55690;51.566;19.198;2023-05-02T07:39:34;7;7;6
68713;PMS7003;55690;51.566;19.198;2023-05-02T07:43:40;14;9;5
68713;PMS7003;55690;51.566;19.198;2023-05-02T07:47:47;7;7;6
68713;PMS7003;55690;51.566;19.198;2023-05-02T07:52:00;4;4;3
68713;PMS7003;55690;51.566;19.198;2023-05-02T07:56:27;10;7;6
68713;PMS7003;55690;51.566;19.198;2023-05-02T08:00:49;10;10;9
68713;PMS7003;55690;51.566;19.198;2023-05-02T08:04:51;6;6;6
68713;PMS7003;55690;51.566;19.198;2023-05-02T08:08:53;8;8;8
68713;PMS7003;55690;51.566;19.198;2023-05-02T08:12:55;9;5;5
68713;PMS7003;55690;51.566;19.198;2023-05-02T08:16:57;11;9;8
68713;PMS7003;55690;51.566;19.198;2023-05-02T08:20:59;8;8;6
68713;PMS7003;55690;51.566;19.198;2023-05-02T08:25:00;5;5;4
68713;PMS7003;55690;51.566;19.198;2023-05-02T08:29:02;9;8;7
68713;PMS7003;55690;51.566;19.198;2023-05-02T08:33:04;9;9;7
68713;PMS7003;55690;51.566;19.198;2023-05-02T08:37:09;4;4;3
68713;PMS7003;55690;51.566;19.198;2023-05-02T08:41:13;7;7;6
68713;PMS7003;55690;51.566;19.198;2023-05-02T08:45:17;9;6;6
68713;PMS7003;55690;51.566;19.198;2023-05-02T08:49:20;6;6;4
68713;PMS7003;55690;51.566;19.198;2023-05-02T08:53:25;8;7;6
68713;PMS7003;55690;51.566;19.198;2023-05-02T08:57:31;15;11;8
68713;PMS7003;55690;51.566;19.198;2023-05-02T09:01:38;9;7;5
68713;PMS7003;55690;51.566;19.198;2023-05-02T09:05:45;13;7;6
68713;PMS7003;55690;51.566;19.198;2023-05-02T09:10:00;8;8;6
68713;PMS7003;55690;51.566;19.198;2023-05-02T09:14:02;11;7;6
68713;PMS7003;55690;51.566;19.198;2023-05-02T09:22:23;11;9;7
68713;PMS7003;55690;51.566;19.198;2023-05-02T09:26:25;18;10;8
68713;PMS7003;55690;51.566;19.198;2023-05-02T09:30:32;10;9;8
68713;PMS7003;55690;51.566;19.198;2023-05-02T09:34:35;16;10;6
68713;PMS7003;55690;51.566;19.198;2023-05-02T09:38:39;15;9;6
68713;PMS7003;55690;51.566;19.198;2023-05-02T09:42:42;13;11;10
68713;PMS7003;55690;51.566;19.198;2023-05-02T09:46:49;18;11;10
68713;PMS7003;55690;51.566;19.198;2023-05-02T09:50:52;9;8;7
68713;PMS7003;55690;51.566;19.198;2023-05-02T09:54:58;17;12;7
68713;PMS7003;55690;51.566;19.198;2023-05-02T10:03:17;10;10;9
68713;PMS7003;55690;51.566;19.198;2023-05-02T10:07:20;8;7;7
68713;PMS7003;55690;51.566;19.198;2023-05-02T10:11:22;9;8;6
68713;PMS7003;55690;51.566;19.198;2023-05-02T10:15:32;16;8;7
68713;PMS7003;55690;51.566;19.198;2023-05-02T10:19:40;12;8;6
68713;PMS7003;55690;51.566;19.198;2023-05-02T10:23:50;15;11;9
68713;PMS7003;55690;51.566;19.198;2023-05-02T10:27:54;15;9;8
68713;PMS7003;55690;51.566;19.198;2023-05-02T10:31:59;8;8;6
68713;PMS7003;55690;51.566;19.198;2023-05-02T10:36:04;7;7;6
68713;PMS7003;55690;51.566;19.198;2023-05-02T10:40:10;10;10;9
68713;PMS7003;55690;51.566;19.198;2023-05-02T10:44:13;14;9;7
68713;PMS7003;55690;51.566;19.198;2023-05-02T10:48:19;15;12;9
68713;PMS7003;55690;51.566;19.198;2023-05-02T10:52:28;11;11;9
68713;PMS7003;55690;51.566;19.198;2023-05-02T10:56:33;7;7;5
68713;PMS7003;55690;51.566;19.198;2023-05-02T11:00:36;17;7;6
68713;PMS7003;55690;51.566;19.198;2023-05-02T11:09:39;12;8;6
68713;PMS7003;55690;51.566;19.198;2023-05-02T11:13:15;13;7;6
68713;PMS7003;55690;51.566;19.198;2023-05-02T11:17:22;15;14;12
68713;PMS7003;55690;51.566;19.198;2023-05-02T11:21:26;15;15;10
68713;PMS7003;55690;51.566;19.198;2023-05-02T11:25:36;16;11;9
68713;PMS7003;55690;51.566;19.198;2023-05-02T11:33:59;7;7;6
68713;PMS7003;55690;51.566;19.198;2023-05-02T11:38:12;18;14;12
68713;PMS7003;55690;51.566;19.198;2023-05-02T11:46:25;17;15;11
68713;PMS7003;55690;51.566;19.198;2023-05-02T11:50:26;13;13;10
68713;PMS7003;55690;51.566;19.198;2023-05-02T11:54:30;21;18;15
68713;PMS7003;55690;51.566;19.198;2023-05-02T11:58:32;17;12;10
68713;PMS7003;55690;51.566;19.198;2023-05-02T12:02:38;12;11;9
68713;PMS7003;55690;51.566;19.198;2023-05-02T12:10:57;18;14;10
68713;PMS7003;55690;51.566;19.198;2023-05-02T12:19:08;22;11;9
68713;PMS7003;55690;51.566;19.198;2023-05-02T12:23:09;20;17;14
68713;PMS7003;55690;51.566;19.198;2023-05-02T12:27:13;13;12;12
68713;PMS7003;55690;51.566;19.198;2023-05-02T12:31:15;10;10;8
68713;PMS7003;55690;51.566;19.198;2023-05-02T12:35:20;14;14;11
68713;PMS7003;55690;51.566;19.198;2023-05-02T12:47:47;16;14;12
68713;PMS7003;55690;51.566;19.198;2023-05-02T12:51:51;24;15;10
68713;PMS7003;55690;51.566;19.198;2023-05-02T13:00:04;14;10;8
68713;PMS7003;55690;51.566;19.198;2023-05-02T13:04:07;12;12;8
68713;PMS7003;55690;51.566;19.198;2023-05-02T13:08:09;12;11;9
68713;PMS7003;55690;51.566;19.198;2023-05-02T13:12:10;15;12;9
68713;PMS7003;55690;51.566;19.198;2023-05-02T13:16:12;10;9;7
68713;PMS7003;55690;51.566;19.198;2023-05-02T13:20:14;17;12;10
68713;PMS7003;55690;51.566;19.198;2023-05-02T13:24:15;22;11;8
68713;PMS7003;55690;51.566;19.198;2023-05-02T13:28:19;7;3;0
68713;PMS7003;55690;51.566;19.198;2023-05-02T13:32:25;12;10;8
68713;PMS7003;55690;51.566;19.198;2023-05-02T13:36:31;20;12;8
68713;PMS7003;55690;51.566;19.198;2023-05-02T13:40:37;11;10;8
68713;PMS7003;55690;51.566;19.198;2023-05-02T13:44:43;17;11;8
68713;PMS7003;55690;51.566;19.198;2023-05-02T13:48:50;11;11;8
68713;PMS7003;55690;51.566;19.198;2023-05-02T13:52:56;15;13;11
68713;PMS7003;55690;51.566;19.198;2023-05-02T13:57:02;5;5;4
68713;PMS7003;55690;51.566;19.198;2023-05-02T14:01:08;14;13;10
68713;PMS7003;55690;51.566;19.198;2023-05-02T14:05:14;10;10;7
68713;PMS7003;55690;51.566;19.198;2023-05-02T14:09:20;10;10;9
68713;PMS7003;55690;51.566;19.198;2023-05-02T14:13:27;18;12;9
68713;PMS7003;55690;51.566;19.198;2023-05-02T14:17:33;8;8;5
68713;PMS7003;55690;51.566;19.198;2023-05-02T14:21:39;14;8;8
68713;PMS7003;55690;51.566;19.198;2023-05-02T14:25:45;13;9;8
68713;PMS7003;55690;51.566;19.198;2023-05-02T14:29:51;7;7;6
68713;PMS7003;55690;51.566;19.198;2023-05-02T14:33:57;8;8;7
68713;PMS7003;55690;51.566;19.198;2023-05-02T14:38:03;10;9;7
68713;PMS7003;55690;51.566;19.198;2023-05-02T14:42:10;14;11;8
68713;PMS7003;55690;51.566;19.198;2023-05-02T14:46:16;13;9;7
68713;PMS7003;55690;51.566;19.198;2023-05-02T14:50:22;7;7;5
68713;PMS7003;55690;51.566;19.198;2023-05-02T14:54:28;11;9;7
68713;PMS7003;55690;51.566;19.198;2023-05-02T14:58:34;16;9;8
68713;PMS7003;55690;51.566;19.198;2023-05-02T15:02:40;10;10;8
68713;PMS7003;55690;51.566;19.198;2023-05-02T15:06:47;9;9;8
68713;PMS7003;55690;51.566;19.198;2023-05-02T15:10:53;10;7;6
68713;PMS7003;55690;51.566;19.198;2023-05-02T15:14:59;18;9;7
68713;PMS7003;55690;51.566;19.198;2023-05-02T15:19:05;9;9;5
68713;PMS7003;55690;51.566;19.198;2023-05-02T15:23:11;10;10;7
68713;PMS7003;55690;51.566;19.198;2023-05-02T15:27:17;11;11;10
68713;PMS7003;55690;51.566;19.198;2023-05-02T15:31:24;16;5;4
68713;PMS7003;55690;51.566;19.198;2023-05-02T15:35:30;10;10;6
68713;PMS7003;55690;51.566;19.198;2023-05-02T15:39:36;10;8;8
68713;PMS7003;55690;51.566;19.198;2023-05-02T15:43:42;7;7;7
68713;PMS7003;55690;51.566;19.198;2023-05-02T15:47:48;14;10;8
68713;PMS7003;55690;51.566;19.198;2023-05-02T15:51:54;10;10;8
68713;PMS7003;55690;51.566;19.198;2023-05-02T15:56:01;9;9;6
68713;PMS7003;55690;51.566;19.198;2023-05-02T16:00:07;9;9;8
68713;PMS7003;55690;51.566;19.198;2023-05-02T16:04:16;7;7;6
68713;PMS7003;55690;51.566;19.198;2023-05-02T16:08:19;12;11;10
68713;PMS7003;55690;51.566;19.198;2023-05-02T16:12:25;7;6;5
68713;PMS7003;55690;51.566;19.198;2023-05-02T16:16:31;10;8;6
68713;PMS7003;55690;51.566;19.198;2023-05-02T16:20:38;9;9;8
68713;PMS7003;55690;51.566;19.198;2023-05-02T16:24:44;5;5;4
68713;PMS7003;55690;51.566;19.198;2023-05-02T16:28:50;13;8;7
68713;PMS7003;55690;51.566;19.198;2023-05-02T16:32:56;10;9;7
68713;PMS7003;55690;51.566;19.198;2023-05-02T16:37:02;6;6;5
68713;PMS7003;55690;51.566;19.198;2023-05-02T16:41:08;12;11;11
68713;PMS7003;55690;51.566;19.198;2023-05-02T16:45:14;12;11;10
68713;PMS7003;55690;51.566;19.198;2023-05-02T16:49:21;12;10;8
68713;PMS7003;55690;51.566;19.198;2023-05-02T16:53:27;9;7;5
68713;PMS7003;55690;51.566;19.198;2023-05-02T16:57:33;8;8;6
68713;PMS7003;55690;51.566;19.198;2023-05-02T17:01:39;11;8;6
68713;PMS7003;55690;51.566;19.198;2023-05-02T17:05:45;11;10;9
68713;PMS7003;55690;51.566;19.198;2023-05-02T17:09:51;15;15;12
68713;PMS7003;55690;51.566;19.198;2023-05-02T17:13:58;13;11;8
68713;PMS7003;55690;51.566;19.198;2023-05-02T17:18:05;22;17;13
68713;PMS7003;55690;51.566;19.198;2023-05-02T17:22:11;16;15;11
68713;PMS7003;55690;51.566;19.198;2023-05-02T17:26:16;16;12;9
68713;PMS7003;55690;51.566;19.198;2023-05-02T17:30:22;11;11;9
68713;PMS7003;55690;51.566;19.198;2023-05-02T17:34:28;8;8;6
68713;PMS7003;55690;51.566;19.198;2023-05-02T17:42:44;17;12;9
68713;PMS7003;55690;51.566;19.198;2023-05-02T17:46:47;13;12;10
68713;PMS7003;55690;51.566;19.198;2023-05-02T17:50:53;13;12;9
68713;PMS7003;55690;51.566;19.198;2023-05-02T17:55:00;16;14;13
68713;PMS7003;55690;51.566;19.198;2023-05-02T17:59:06;18;17;14
68713;PMS7003;55690;51.566;19.198;2023-05-02T18:03:12;16;12;9
68713;PMS7003;55690;51.566;19.198;2023-05-02T18:07:18;12;12;10
68713;PMS7003;55690;51.566;19.198;2023-05-02T18:11:24;13;13;9
68713;PMS7003;55690;51.566;19.198;2023-05-02T18:15:30;19;14;9
68713;PMS7003;55690;51.566;19.198;2023-05-02T18:19:37;13;8;7
68713;PMS7003;55690;51.566;19.198;2023-05-02T18:23:44;12;10;7
68713;PMS7003;55690;51.566;19.198;2023-05-02T18:27:49;18;13;11
68713;PMS7003;55690;51.566;19.198;2023-05-02T18:31:55;29;28;19
68713;PMS7003;55690;51.566;19.198;2023-05-02T18:36:04;25;24;17
68713;PMS7003;55690;51.566;19.198;2023-05-02T18:40:10;33;22;16
68713;PMS7003;55690;51.566;19.198;2023-05-02T18:44:16;34;26;15
68713;PMS7003;55690;51.566;19.198;2023-05-02T18:48:22;23;20;15
68713;PMS7003;55690;51.566;19.198;2023-05-02T18:52:29;17;16;11
68713;PMS7003;55690;51.566;19.198;2023-05-02T18:56:35;19;16;13
68713;PMS7003;55690;51.566;19.198;2023-05-02T19:00:41;19;14;12
68713;PMS7003;55690;51.566;19.198;2023-05-02T19:04:47;20;19;12
68713;PMS7003;55690;51.566;19.198;2023-05-02T19:08:53;14;11;8
68713;PMS7003;55690;51.566;19.198;2023-05-02T19:13:00;21;20;13
68713;PMS7003;55690;51.566;19.198;2023-05-02T19:17:05;14;14;12
68713;PMS7003;55690;51.566;19.198;2023-05-02T19:21:12;21;14;12
68713;PMS7003;55690;51.566;19.198;2023-05-02T19:25:18;16;16;14
68713;PMS7003;55690;51.566;19.198;2023-05-02T19:29:24;22;16;12
68713;PMS7003;55690;51.566;19.198;2023-05-02T19:33:30;10;9;7
68713;PMS7003;55690;51.566;19.198;2023-05-02T19:37:36;20;19;12
68713;PMS7003;55690;51.566;19.198;2023-05-02T19:41:42;15;14;11
68713;PMS7003;55690;51.566;19.198;2023-05-02T19:45:49;17;13;11
68713;PMS7003;55690;51.566;19.198;2023-05-02T19:49:55;24;15;12
68713;PMS7003;55690;51.566;19.198;2023-05-02T19:54:01;14;9;8
68713;PMS7003;55690;51.566;19.198;2023-05-02T19:58:07;21;17;12
68713;PMS7003;55690;51.566;19.198;2023-05-02T20:02:13;15;15;11
68713;PMS7003;55690;51.566;19.198;2023-05-02T20:06:19;22;12;9
68713;PMS7003;55690;51.566;19.198;2023-05-02T20:10:26;8;8;6
68713;PMS7003;55690;51.566;19.198;2023-05-02T20:14:32;21;17;12
68713;PMS7003;55690;51.566;19.198;2023-05-02T20:18:38;12;12;11
68713;PMS7003;55690;51.566;19.198;2023-05-02T20:22:45;15;11;9
68713;PMS7003;55690;51.566;19.198;2023-05-02T20:26:50;18;14;11
68713;PMS7003;55690;51.566;19.198;2023-05-02T20:30:56;11;10;9
68713;PMS7003;55690;51.566;19.198;2023-05-02T20:35:03;10;10;7
68713;PMS7003;55690;51.566;19.198;2023-05-02T20:39:09;22;14;10
68713;PMS7003;55690;51.566;19.198;2023-05-02T20:43:15;14;12;8
68713;PMS7003;55690;51.566;19.198;2023-05-02T20:47:23;20;14;12
68713;PMS7003;55690;51.566;19.198;2023-05-02T20:51:27;10;10;7
68713;PMS7003;55690;51.566;19.198;2023-05-02T20:55:34;18;12;10
68713;PMS7003;55690;51.566;19.198;2023-05-02T20:59:40;18;10;6
68713;PMS7003;55690;51.566;19.198;2023-05-02T21:03:46;24;13;7
68713;PMS7003;55690;51.566;19.198;2023-05-02T21:07:52;18;11;9
68713;PMS7003;55690;51.566;19.198;2023-05-02T21:11:58;26;12;10
68713;PMS7003;55690;51.566;19.198;2023-05-02T21:16:11;20;14;9
68713;PMS7003;55690;51.566;19.198;2023-05-02T21:20:14;13;13;9
68713;PMS7003;55690;51.566;19.198;2023-05-02T21:24:17;15;10;6
68713;PMS7003;55690;51.566;19.198;2023-05-02T21:28:23;8;8;7
68713;PMS7003;55690;51.566;19.198;2023-05-02T21:32:29;14;11;8
68713;PMS7003;55690;51.566;19.198;2023-05-02T21:36:35;9;9;5
68713;PMS7003;55690;51.566;19.198;2023-05-02T21:40:41;10;9;6
68713;PMS7003;55690;51.566;19.198;2023-05-02T21:44:51;6;6;5
68713;PMS7003;55690;51.566;19.198;2023-05-02T21:48:54;9;5;5
68713;PMS7003;55690;51.566;19.198;2023-05-02T21:53:00;8;7;5
68713;PMS7003;55690;51.566;19.198;2023-05-02T21:57:06;13;8;5
68713;PMS7003;55690;51.566;19.198;2023-05-02T22:01:12;7;7;5
68713;PMS7003;55690;51.566;19.198;2023-05-02T22:05:18;6;6;4
68713;PMS7003;55690;51.566;19.198;2023-05-02T22:09:25;16;9;6
68713;PMS7003;55690;51.566;19.198;2023-05-02T22:13:31;11;7;4
68713;PMS7003;55690;51.566;19.198;2023-05-02T22:17:37;4;3;3
68713;PMS7003;55690;51.566;19.198;2023-05-02T22:21:45;8;6;4
68713;PMS7003;55690;51.566;19.198;2023-05-02T22:25:49;2;2;1
68713;PMS7003;55690;51.566;19.198;2023-05-02T22:29:55;5;5;4
68713;PMS7003;55690;51.566;19.198;2023-05-02T22:34:02;5;5;3
68713;PMS7003;55690;51.566;19.198;2023-05-02T22:38:08;11;4;3
68713;PMS7003;55690;51.566;19.198;2023-05-02T22:42:16;4;4;3
68713;PMS7003;55690;51.566;19.198;2023-05-02T22:46:20;2;2;2
68713;PMS7003;55690;51.566;19.198;2023-05-02T22:50:26;2;2;2
68713;PMS7003;55690;51.566;19.198;2023-05-02T22:54:32;3;1;1
68713;PMS7003;55690;51.566;19.198;2023-05-02T22:58:39;3;3;1
68713;PMS7003;55690;51.566;19.198;2023-05-02T23:02:45;4;4;3
68713;PMS7003;55690;51.566;19.198;2023-05-02T23:06:51;4;3;3
68713;PMS7003;55690;51.566;19.198;2023-05-02T23:10:57;5;4;3
68713;PMS7003;55690;51.566;19.198;2023-05-02T23:15:04;3;3;2
68713;PMS7003;55690;51.566;19.198;2023-05-02T23:19:09;4;2;2
68713;PMS7003;55690;51.566;19.198;2023-05-02T23:23:16;4;3;1
68713;PMS7003;55690;51.566;19.198;2023-05-02T23:27:22;2;2;1
68713;PMS7003;55690;51.566;19.198;2023-05-02T23:31:28;2;1;1
68713;PMS7003;55690;51.566;19.198;2023-05-02T23:35:34;1;1;1
68713;PMS7003;55690;51.566;19.198;2023-05-02T23:39:40;2;2;1
68713;PMS7003;55690;51.566;19.198;2023-05-02T23:43:46;1;1;1
68713;PMS7003;55690;51.566;19.198;2023-05-02T23:47:53;5;3;2
68713;PMS7003;55690;51.566;19.198;2023-05-02T23:51:59;1;1;1
68713;PMS7003;55690;51.566;19.198;2023-05-02T23:56:05;4;1;0
